Orbital elements of FENGYUN 1C DEB
| Launched | 9 May 1999 |
| Flight ended | – |
| Launch site | Taiyuan Space Center, PRC |
| Owner | People's Republic of China |
| NORAD ID | 30321 |
| Date fetched |
Epoch osculation |
Inc. [°] |
Ecc. | RA asc node [hr] |
Arg Peri. [°] |
Mean anom [°] |
Mean motion [rev/day] |
Abs. mag |
| Date fetched |
Epoch osculation |
Inc. [°] |
Ecc. | RA asc node [hr] |
Arg Peri. [°] |
Mean anom [°] |
Mean motion [rev/day] |
Abs. mag |
| 2026 May 03 17:57 | 2026 Apr 30 12:14:23 | 98.6616 | 0.00603 | 8.0575 | 197.7713 | 316.7121 | 14.16831 | – |
| 2026 May 02 17:57 | 2026 Apr 30 12:14:23 | 98.6616 | 0.00603 | 8.0575 | 197.7713 | 316.7121 | 14.16831 | – |
| 2026 May 01 17:56 | 2026 Apr 30 12:14:23 | 98.6616 | 0.00603 | 8.0575 | 197.7713 | 316.7121 | 14.16831 | – |
| 2026 Apr 30 17:56 | 2026 Apr 30 12:14:23 | 98.6616 | 0.00603 | 8.0575 | 197.7713 | 316.7121 | 14.16831 | – |
| 2026 Apr 29 17:57 | 2026 Apr 24 12:03:21 | 98.6618 | 0.00599 | 7.6674 | 215.1964 | 316.7121 | 14.16831 | – |
| 2026 Apr 28 17:56 | 2026 Apr 24 12:03:21 | 98.6618 | 0.00599 | 7.6674 | 215.1964 | 316.7121 | 14.16831 | – |
| 2026 Apr 27 17:58 | 2026 Apr 24 12:03:21 | 98.6618 | 0.00599 | 7.6674 | 215.1964 | 316.7121 | 14.16831 | – |
| 2026 Apr 26 17:58 | 2026 Apr 24 12:03:21 | 98.6618 | 0.00599 | 7.6674 | 215.1964 | 316.7121 | 14.16831 | – |
| 2026 Apr 25 17:58 | 2026 Apr 24 12:03:21 | 98.6618 | 0.00599 | 7.6674 | 215.1964 | 316.7121 | 14.16831 | – |
| 2026 Apr 24 17:59 | 2026 Apr 24 12:03:21 | 98.6618 | 0.00599 | 7.6674 | 215.1964 | 316.7121 | 14.16831 | – |
| 2026 Apr 23 17:57 | 2026 Apr 19 06:07:12 | 98.6620 | 0.00597 | 7.3267 | 230.5003 | 316.7121 | 14.16831 | – |
| 2026 Apr 22 17:57 | 2026 Apr 19 06:07:12 | 98.6620 | 0.00597 | 7.3267 | 230.5003 | 316.7121 | 14.16831 | – |
| 2026 Apr 21 17:57 | 2026 Apr 19 06:07:12 | 98.6620 | 0.00597 | 7.3267 | 230.5003 | 316.7121 | 14.16831 | – |
| 2026 Apr 20 17:57 | 2026 Apr 19 06:07:12 | 98.6620 | 0.00597 | 7.3267 | 230.5003 | 316.7121 | 14.16831 | – |
| 2026 Apr 19 17:58 | 2026 Apr 19 06:07:12 | 98.6620 | 0.00597 | 7.3267 | 230.5003 | 316.7121 | 14.16831 | – |
| 2026 Apr 18 17:56 | 2026 Apr 13 06:03:17 | 98.6620 | 0.00595 | 6.9369 | 248.0586 | 316.7121 | 14.16831 | – |
| 2026 Apr 16 17:57 | 2026 Apr 13 06:03:17 | 98.6620 | 0.00595 | 6.9369 | 248.0586 | 316.7121 | 14.16831 | – |
| 2026 Apr 14 17:57 | 2026 Apr 13 06:03:17 | 98.6620 | 0.00595 | 6.9369 | 248.0586 | 316.7121 | 14.16831 | – |
| 2026 Apr 13 17:57 | 2026 Apr 13 06:03:17 | 98.6620 | 0.00595 | 6.9369 | 248.0586 | 316.7121 | 14.16831 | – |
| 2026 Apr 12 17:57 | 2026 Apr 08 11:28:41 | 98.6619 | 0.00594 | 6.6269 | 262.0373 | 316.7121 | 14.16831 | – |
| 2026 Apr 11 17:57 | 2026 Apr 08 11:28:41 | 98.6619 | 0.00594 | 6.6269 | 262.0373 | 316.7121 | 14.16831 | – |
| 2026 Apr 10 17:58 | 2026 Apr 08 11:28:41 | 98.6619 | 0.00594 | 6.6269 | 262.0373 | 316.7121 | 14.16831 | – |
| 2026 Apr 09 18:01 | 2026 Apr 08 11:28:41 | 98.6619 | 0.00594 | 6.6269 | 262.0373 | 316.7121 | 14.16831 | – |
| 2026 Apr 08 17:57 | 2026 Apr 08 11:28:41 | 98.6619 | 0.00594 | 6.6269 | 262.0373 | 316.7121 | 14.16831 | – |
| 2026 Apr 07 17:57 | 2026 Apr 02 05:37:33 | 98.6620 | 0.00594 | 6.2215 | 280.3611 | 316.7121 | 14.16831 | – |
| 2026 Apr 06 17:57 | 2026 Apr 02 05:37:33 | 98.6620 | 0.00594 | 6.2215 | 280.3611 | 316.7121 | 14.16831 | – |